Terminal Aerodrome Forecast
Issued by NWS Knoxville/Tri Cities, TN

Home | Current Version | Previous Version | Text Only | Print | Product List | Glossary On
Versions: 1 2 3 4 5 6 7 8 9 10 11 12 13 14 15 16
000
FTUS44 KMRX 050012 AAA
TAFTYS
TAF AMD
KTYS 050012Z 0500/0524 23006KT 2SM -RA BR BKN008 OVC040
     FM050200 VRB03KT 2SM -DZ OVC010
     FM050500 00000KT 1SM BR OVC004
     FM050900 00000KT 1/2SM FG OVC002
     FM051500 03005KT 5SM BR OVC015=

USA.gov is the U.S. government's official web portal to all federal, state and local government web resources and services.